Terminal Aerodrome Forecast
Issued by NWS St Louis, MO

Home | Current Version | Previous Version | Text Only | Print | Product List | Glossary On
Versions: 1 2 3 4 5 6 7 8 9 10 11 12 13 14 15 16 17 18 19
310
FTUS43 KLSX 202044 AAA
TAFSTL
TAF AMD
KSTL 202044Z 2021/2124 26014G24KT P6SM BKN040
     FM210000 32009KT P6SM BKN110
     FM211700 03010KT P6SM VCSH SCT020 BKN040=

USA.gov is the U.S. government's official web portal to all federal, state and local government web resources and services.